createdAt,value
2022-10-23T00:01:41.913Z,17.83
2022-10-23T00:03:44.401Z,17.89
2022-10-23T00:05:46.191Z,17.88
2022-10-23T00:07:55.128Z,17.86
2022-10-23T00:09:56.779Z,17.85
2022-10-23T00:11:58.499Z,17.87
2022-10-23T00:14:02.444Z,17.89
2022-10-23T00:16:04.799Z,17.91
2022-10-23T00:18:06.529Z,17.89
2022-10-23T00:20:08.811Z,17.91
2022-10-23T00:22:11.310Z,17.93
2022-10-23T00:24:13.093Z,17.96
2022-10-23T00:26:16.021Z,17.95
2022-10-23T00:28:18.008Z,17.93
2022-10-23T00:30:19.772Z,17.96
2022-10-23T00:32:21.474Z,17.95
2022-10-23T00:34:23.113Z,17.91
2022-10-23T00:36:24.874Z,17.85
2022-10-23T00:38:26.682Z,17.88
2022-10-23T00:40:28.323Z,17.80
2022-10-23T00:42:30.030Z,17.81
2022-10-23T00:44:31.591Z,17.83
2022-10-23T00:46:34.542Z,17.72
2022-10-23T00:48:36.384Z,17.65
2022-10-23T00:50:38.360Z,17.78
2022-10-23T00:52:45.444Z,17.70
2022-10-23T00:54:47.137Z,17.76
2022-10-23T00:56:49.460Z,17.64
2022-10-23T00:58:51.149Z,17.71
2022-10-23T01:00:55.827Z,17.72
2022-10-23T01:02:57.864Z,17.74
2022-10-23T01:04:59.627Z,17.72
2022-10-23T01:07:25.707Z,17.77
2022-10-23T01:09:51.390Z,17.83
2022-10-23T01:11:57.604Z,17.81
2022-10-23T01:14:15.536Z,17.79
2022-10-23T01:16:23.767Z,17.74
2022-10-23T01:18:36.145Z,17.71
2022-10-23T01:21:01.804Z,17.77
2022-10-23T01:23:15.269Z,17.81
2022-10-23T01:25:29.654Z,17.76
2022-10-23T01:27:39.902Z,17.78
2022-10-23T01:29:46.681Z,17.78
2022-10-23T01:31:58.157Z,17.75
2022-10-23T01:34:23.349Z,17.81
2022-10-23T01:36:28.819Z,17.77
2022-10-23T01:38:47.192Z,17.80
2022-10-23T01:40:56.053Z,17.80
2022-10-23T01:43:08.208Z,17.78
2022-10-23T01:45:17.950Z,17.82
2022-10-23T01:47:24.073Z,17.83
2022-10-23T01:49:25.706Z,17.85
2022-10-23T01:51:29.763Z,17.81
2022-10-23T01:53:36.699Z,17.84
2022-10-23T01:57:45.747Z,17.81
2022-10-23T01:59:52.913Z,17.77
2022-10-23T02:01:57.192Z,17.83
2022-10-23T02:09:07.716Z,17.84
2022-10-23T02:11:21.816Z,17.83
2022-10-23T02:13:31.566Z,17.84
2022-10-23T02:15:45.693Z,17.84
2022-10-23T02:18:02.925Z,17.87
2022-10-23T02:20:13.355Z,17.80
2022-10-23T02:22:38.443Z,17.82
2022-10-23T02:25:05.301Z,17.85
2022-10-23T02:27:32.132Z,17.85
2022-10-23T02:29:39.187Z,17.81
2022-10-23T02:31:40.955Z,17.89
2022-10-23T02:33:44.718Z,17.90
2022-10-23T02:35:47.373Z,17.88
2022-10-23T02:38:00.081Z,17.88
2022-10-23T02:40:04.042Z,17.90
2022-10-23T02:42:22.301Z,17.90
2022-10-23T02:44:23.861Z,17.80
2022-10-23T02:46:51.455Z,17.82
2022-10-23T02:49:21.265Z,17.92
2022-10-23T02:51:36.336Z,17.92
2022-10-23T02:54:26.306Z,17.86
2022-10-23T02:56:45.657Z,17.83
2022-10-23T02:58:59.386Z,17.91
2022-10-23T03:01:20.164Z,17.85
2022-10-23T03:03:24.408Z,17.91
2022-10-23T03:05:31.264Z,17.78
2022-10-23T03:07:33.713Z,17.89
2022-10-23T03:09:37.087Z,17.88
2022-10-23T03:11:38.804Z,17.88
2022-10-23T03:13:40.411Z,17.92
2022-10-23T03:15:42.183Z,17.89
2022-10-23T03:17:43.887Z,17.93
2022-10-23T03:19:45.510Z,17.94
2022-10-23T03:21:47.137Z,17.96
2022-10-23T03:23:48.873Z,17.96
2022-10-23T03:25:53.214Z,17.94
2022-10-23T03:27:55.005Z,17.94
2022-10-23T03:29:56.810Z,17.96
2022-10-23T03:31:58.440Z,17.92
2022-10-23T03:34:00.497Z,17.98
2022-10-23T03:36:02.316Z,17.98
2022-10-23T03:38:04.069Z,17.88
2022-10-23T03:40:06.294Z,17.98
2022-10-23T03:42:08.099Z,17.95
2022-10-23T03:44:09.755Z,17.99
2022-10-23T03:46:13.057Z,18.01
2022-10-23T03:48:14.952Z,18.02
2022-10-23T03:50:16.714Z,18.02
2022-10-23T03:52:18.450Z,17.95
2022-10-23T03:54:22.588Z,17.95
2022-10-23T03:56:24.443Z,17.97
2022-10-23T03:58:26.255Z,18.00
2022-10-23T04:00:27.898Z,18.00
2022-10-23T04:02:29.644Z,18.02
2022-10-23T04:04:31.325Z,18.00
2022-10-23T04:06:33.096Z,18.08
2022-10-23T04:08:35.301Z,18.06
2022-10-23T04:10:37.045Z,18.09
2022-10-23T04:12:38.832Z,18.08
2022-10-23T04:14:40.465Z,18.06
2022-10-23T04:16:42.798Z,18.08
2022-10-23T04:18:44.548Z,18.09
2022-10-23T04:20:49.575Z,18.11
2022-10-23T04:22:51.282Z,18.12
2022-10-23T04:24:52.955Z,18.04
2022-10-23T04:26:54.739Z,18.08
2022-10-23T04:28:56.402Z,18.10
2022-10-23T04:30:58.135Z,18.11
2022-10-23T04:33:00.120Z,18.11
2022-10-23T04:35:02.165Z,18.12
2022-10-23T04:37:03.860Z,18.12
2022-10-23T04:39:05.741Z,18.10
2022-10-23T04:41:07.515Z,18.07
2022-10-23T04:43:09.197Z,18.09
2022-10-23T04:45:11.216Z,18.11
2022-10-23T04:47:13.005Z,18.17
2022-10-23T04:49:14.678Z,18.13
2022-10-23T04:51:16.372Z,18.13
2022-10-23T04:53:18.010Z,18.11
2022-10-23T04:55:19.654Z,18.08
2022-10-23T04:57:21.492Z,18.08
2022-10-23T04:59:23.115Z,18.07
2022-10-23T05:01:24.846Z,18.11
2022-10-23T05:03:27.130Z,18.14
2022-10-23T05:05:28.753Z,18.13
2022-10-23T05:07:30.480Z,18.09
2022-10-23T05:09:32.185Z,18.09
2022-10-23T05:11:33.912Z,18.00
2022-10-23T05:13:35.732Z,18.00
2022-10-23T05:15:37.453Z,18.05
2022-10-23T05:17:43.012Z,18.03
2022-10-23T05:19:58.410Z,18.02
2022-10-23T05:22:00.664Z,17.95
2022-10-23T05:24:02.495Z,17.99
2022-10-23T05:26:04.977Z,17.97
2022-10-23T05:28:06.692Z,18.06
2022-10-23T05:30:08.824Z,18.01
2022-10-23T05:32:12.696Z,18.07
2022-10-23T05:34:17.352Z,18.04
2022-10-23T05:36:19.036Z,18.08
2022-10-23T05:38:21.338Z,18.10
2022-10-23T05:40:23.996Z,18.05
2022-10-23T05:42:25.787Z,17.99
2022-10-23T05:44:27.453Z,18.02
2022-10-23T05:46:29.137Z,18.06
2022-10-23T05:48:34.751Z,18.08
2022-10-23T05:50:37.707Z,18.06
2022-10-23T05:52:39.340Z,17.97
2022-10-23T05:54:41.240Z,18.00
2022-10-23T05:56:42.968Z,18.03
2022-10-23T05:58:45.445Z,18.02
2022-10-23T06:00:47.063Z,17.98
2022-10-23T06:02:48.676Z,17.96
2022-10-23T06:04:50.327Z,18.06
2022-10-23T06:06:51.967Z,18.08
2022-10-23T06:08:54.311Z,18.10
2022-10-23T06:10:56.529Z,18.15
2022-10-23T06:12:58.142Z,18.20
2022-10-23T06:14:59.917Z,18.20
2022-10-23T06:17:01.547Z,18.21
2022-10-23T06:19:03.527Z,18.24
2022-10-23T06:21:05.538Z,18.18
2022-10-23T06:23:07.681Z,18.20
2022-10-23T06:25:09.596Z,18.15
2022-10-23T06:27:11.323Z,18.09
2022-10-23T06:29:13.000Z,18.11
2022-10-23T06:31:16.514Z,18.09
2022-10-23T06:33:18.218Z,18.08
2022-10-23T06:35:19.957Z,18.15
2022-10-23T06:37:21.591Z,18.16
2022-10-23T06:39:25.188Z,18.17
2022-10-23T06:41:28.949Z,18.15
2022-10-23T06:43:30.759Z,18.17
2022-10-23T06:45:34.130Z,18.14
2022-10-23T06:47:35.782Z,18.14
2022-10-23T06:49:37.568Z,18.10
2022-10-23T06:51:39.204Z,18.13
2022-10-23T06:53:41.260Z,18.07
2022-10-23T06:55:43.032Z,18.08
2022-10-23T06:57:45.439Z,17.99
2022-10-23T06:59:47.489Z,18.00
2022-10-23T07:01:49.484Z,17.90
2022-10-23T07:03:51.299Z,17.97
2022-10-23T07:06:02.157Z,17.96
2022-10-23T07:08:06.882Z,17.98
2022-10-23T07:10:08.706Z,17.93
2022-10-23T07:12:10.455Z,17.93
2022-10-23T07:14:12.296Z,17.93
2022-10-23T07:16:18.613Z,17.90
2022-10-23T07:18:20.232Z,17.91
2022-10-23T07:20:22.284Z,17.88
2022-10-23T07:22:24.019Z,17.88
2022-10-23T07:24:25.855Z,17.88
2022-10-23T07:26:27.966Z,17.95
2022-10-23T07:28:29.582Z,17.91
2022-10-23T07:30:31.873Z,17.93
2022-10-23T07:32:33.765Z,17.98
2022-10-23T07:34:36.947Z,18.00
2022-10-23T07:36:38.689Z,18.00
2022-10-23T07:38:40.865Z,17.96
2022-10-23T07:40:42.478Z,17.93
2022-10-23T07:42:44.345Z,17.94
2022-10-23T07:44:46.005Z,17.98
2022-10-23T07:46:47.626Z,17.95
2022-10-23T07:48:49.474Z,17.99
2022-10-23T07:50:51.616Z,17.98
2022-10-23T07:52:53.299Z,17.98
2022-10-23T07:54:55.041Z,17.98
2022-10-23T07:56:56.646Z,17.97
2022-10-23T07:58:58.337Z,18.01
2022-10-23T08:01:02.605Z,17.98
2022-10-23T08:03:04.258Z,17.98
2022-10-23T08:05:06.400Z,17.97
2022-10-23T08:07:08.041Z,18.00
2022-10-23T08:09:09.654Z,17.98
2022-10-23T08:11:14.067Z,17.99
2022-10-23T08:13:16.310Z,17.94
2022-10-23T08:15:17.927Z,17.96
2022-10-23T08:17:19.556Z,17.96
2022-10-23T08:19:21.225Z,17.97
2022-10-23T08:21:22.910Z,17.91
2022-10-23T08:23:24.565Z,17.98
2022-10-23T08:25:26.246Z,18.00
2022-10-23T08:27:27.990Z,18.01
2022-10-23T08:29:29.636Z,17.98
2022-10-23T08:31:31.441Z,17.98
2022-10-23T08:33:33.126Z,17.90
2022-10-23T08:35:38.283Z,17.89
2022-10-23T08:37:40.041Z,17.88
2022-10-23T08:39:41.919Z,17.94
2022-10-23T08:41:49.306Z,17.94
2022-10-23T08:44:17.055Z,17.98
2022-10-23T08:46:23.955Z,17.99
2022-10-23T08:48:49.874Z,18.00
2022-10-23T08:50:57.583Z,17.93
2022-10-23T08:53:25.816Z,17.96
2022-10-23T08:55:33.549Z,17.98
2022-10-23T08:57:43.714Z,17.98
2022-10-23T09:00:08.763Z,17.96
2022-10-23T09:02:16.115Z,18.00
2022-10-23T09:04:17.930Z,18.00
2022-10-23T09:06:35.235Z,18.00
2022-10-23T09:08:51.831Z,17.97
2022-10-23T09:11:04.467Z,17.89
2022-10-23T09:13:32.408Z,17.78
2022-10-23T09:15:55.601Z,17.79
2022-10-23T09:18:07.834Z,17.77
2022-10-23T09:20:48.408Z,17.79
2022-10-23T09:22:58.426Z,17.84
2022-10-23T09:25:00.088Z,17.89
2022-10-23T09:27:01.745Z,17.92
2022-10-23T09:29:19.768Z,17.97
2022-10-23T09:31:21.388Z,17.97
2022-10-23T09:33:25.864Z,17.84
2022-10-23T09:35:30.652Z,17.88
2022-10-23T09:37:34.522Z,17.93
2022-10-23T09:39:37.026Z,17.93
2022-10-23T09:41:40.179Z,17.96
2022-10-23T09:43:41.894Z,17.96
2022-10-23T09:45:44.137Z,17.98
2022-10-23T09:47:45.956Z,18.06
2022-10-23T09:49:50.721Z,18.01
2022-10-23T09:52:06.058Z,18.04
2022-10-23T09:54:16.837Z,18.06
2022-10-23T09:56:26.586Z,18.07
2022-10-23T09:58:35.311Z,18.01
2022-10-23T10:00:49.250Z,18.09
2022-10-23T10:03:01.207Z,18.14
2022-10-23T10:05:27.380Z,18.11
2022-10-23T10:07:33.405Z,18.05
2022-10-23T10:09:37.591Z,18.04
2022-10-23T10:11:48.187Z,18.14
2022-10-23T10:14:02.078Z,18.08
2022-10-23T10:16:27.516Z,18.08
2022-10-23T10:19:04.843Z,18.03
2022-10-23T10:21:51.321Z,18.05
2022-10-23T10:24:29.162Z,18.06
2022-10-23T10:26:37.115Z,18.06
2022-10-23T10:29:00.639Z,18.02
2022-10-23T10:31:26.814Z,18.08
2022-10-23T10:33:43.659Z,18.07
2022-10-23T10:36:11.394Z,18.08
2022-10-23T10:38:44.211Z,18.09
2022-10-23T10:41:24.650Z,18.09
2022-10-23T10:43:32.250Z,18.09
2022-10-23T10:45:38.955Z,18.06
2022-10-23T10:47:47.733Z,18.06
2022-10-23T10:50:08.069Z,18.14
2022-10-23T10:52:12.662Z,18.13
2022-10-23T10:54:26.746Z,18.16
2022-10-23T10:56:31.611Z,18.20
2022-10-23T10:58:45.977Z,18.16
2022-10-23T11:00:55.948Z,18.14
2022-10-23T11:03:03.009Z,18.22
2022-10-23T11:05:19.828Z,18.25
2022-10-23T11:07:31.995Z,18.32
2022-10-23T11:09:33.903Z,18.35
2022-10-23T11:11:40.813Z,18.42
2022-10-23T11:13:44.812Z,18.45
2022-10-23T11:15:47.424Z,18.47
2022-10-23T11:17:53.751Z,18.59
2022-10-23T11:20:16.997Z,18.65
2022-10-23T11:22:43.069Z,18.59
2022-10-23T11:25:36.583Z,18.71
2022-10-23T11:28:07.206Z,18.79
2022-10-23T11:30:32.235Z,18.86
2022-10-23T11:33:11.526Z,18.95
2022-10-23T11:35:37.663Z,18.94
2022-10-23T11:37:39.378Z,18.96
2022-10-23T11:40:13.786Z,18.99
2022-10-23T11:42:40.128Z,19.12
2022-10-23T11:44:43.649Z,19.14
2022-10-23T11:46:45.367Z,19.19
2022-10-23T11:48:47.861Z,19.24
2022-10-23T11:50:52.511Z,19.27
2022-10-23T11:53:12.892Z,19.34
2022-10-23T11:55:22.512Z,19.33
2022-10-23T11:57:24.227Z,19.34
2022-10-23T11:59:25.824Z,19.29
2022-10-23T12:01:34.252Z,19.32
2022-10-23T12:03:49.060Z,19.36
2022-10-23T12:06:05.233Z,19.45
2022-10-23T12:08:20.164Z,19.46
2022-10-23T12:10:31.974Z,19.47
2022-10-23T12:12:51.502Z,19.58
2022-10-23T12:15:40.230Z,19.59
2022-10-23T12:18:31.905Z,19.68
2022-10-23T12:21:09.258Z,19.72
2022-10-23T12:23:53.508Z,19.67
2022-10-23T12:26:37.109Z,19.65
2022-10-23T12:28:50.887Z,19.62
2022-10-23T12:31:49.499Z,19.58
2022-10-23T12:34:40.925Z,19.63
2022-10-23T12:38:00.649Z,19.55
2022-10-23T12:40:32.821Z,19.55
2022-10-23T12:42:48.575Z,19.59
2022-10-23T12:45:21.431Z,19.65
2022-10-23T12:47:57.511Z,19.64
2022-10-23T12:50:30.959Z,19.63
2022-10-23T12:52:47.026Z,19.68
2022-10-23T12:54:55.783Z,19.65
2022-10-23T12:57:30.896Z,19.73
2022-10-23T12:59:39.505Z,19.76
2022-10-23T13:01:50.378Z,19.74
2022-10-23T13:04:35.095Z,19.66
2022-10-23T13:06:51.011Z,19.76
2022-10-23T13:09:09.298Z,19.94
2022-10-23T13:13:54.927Z,20.05
2022-10-23T13:16:28.208Z,20.21
2022-10-23T13:18:54.973Z,20.25
2022-10-23T13:21:14.706Z,20.27
2022-10-23T13:23:36.062Z,20.53
2022-10-23T13:26:12.710Z,20.57
2022-10-23T13:28:43.068Z,20.57
2022-10-23T13:30:46.437Z,20.74
2022-10-23T13:32:48.173Z,20.75
2022-10-23T13:35:10.151Z,20.71
2022-10-23T13:37:31.185Z,20.73
2022-10-23T13:39:34.201Z,20.81
2022-10-23T13:41:41.121Z,20.93
2022-10-23T13:43:44.601Z,20.99
2022-10-23T13:45:59.396Z,21.07
2022-10-23T13:48:01.013Z,21.01
2022-10-23T13:50:02.615Z,21.10
2022-10-23T13:52:04.315Z,21.20
2022-10-23T13:54:14.771Z,21.37
2022-10-23T13:56:19.255Z,21.27
2022-10-23T13:58:20.913Z,21.34
2022-10-23T14:00:22.559Z,21.55
2022-10-23T14:02:25.016Z,21.55
2022-10-23T14:04:26.771Z,21.42
2022-10-23T14:06:28.367Z,21.42
2022-10-23T14:08:30.076Z,21.26
2022-10-23T14:10:31.750Z,21.29
2022-10-23T14:12:43.155Z,21.35
2022-10-23T14:14:45.107Z,21.36
2022-10-23T14:16:46.734Z,21.44
2022-10-23T14:18:48.435Z,21.37
2022-10-23T14:20:50.677Z,21.47
2022-10-23T14:22:52.350Z,21.52
2022-10-23T14:24:54.017Z,21.36
2022-10-23T14:26:57.567Z,21.25
2022-10-23T14:29:04.157Z,21.21
2022-10-23T14:31:15.829Z,21.20
2022-10-23T14:33:17.573Z,21.25
2022-10-23T14:35:19.225Z,21.28
2022-10-23T14:37:21.452Z,21.26
2022-10-23T14:39:23.426Z,21.30
2022-10-23T14:41:26.370Z,21.28
2022-10-23T14:43:28.256Z,21.28
2022-10-23T14:45:29.903Z,21.40
2022-10-23T14:47:33.155Z,21.53
2022-10-23T14:49:35.705Z,21.54
2022-10-23T14:51:37.410Z,21.58
2022-10-23T14:53:39.055Z,21.57
2022-10-23T14:55:40.714Z,21.51
2022-10-23T14:57:42.564Z,21.43
2022-10-23T14:59:44.334Z,21.42
2022-10-23T15:01:48.475Z,21.31
2022-10-23T15:03:55.799Z,21.12
2022-10-23T15:06:06.665Z,21.09
2022-10-23T15:08:08.284Z,21.02
2022-10-23T15:10:10.306Z,21.02
2022-10-23T15:12:12.410Z,20.85
2022-10-23T15:14:14.185Z,20.72
2022-10-23T15:16:16.598Z,20.70
2022-10-23T15:18:19.642Z,20.57
2022-10-23T15:20:21.333Z,20.63
2022-10-23T15:22:23.217Z,20.54
2022-10-23T15:24:24.901Z,20.39
2022-10-23T15:26:27.007Z,20.30
2022-10-23T15:28:29.710Z,20.18
2022-10-23T15:30:31.388Z,20.14
2022-10-23T15:32:33.039Z,20.24
2022-10-23T15:34:34.725Z,20.24
2022-10-23T15:36:36.785Z,20.08
2022-10-23T15:38:38.469Z,19.98
2022-10-23T15:40:41.004Z,19.90
2022-10-23T15:42:42.943Z,19.92
2022-10-23T15:44:44.990Z,19.95
2022-10-23T15:46:47.038Z,19.97
2022-10-23T15:48:48.666Z,19.83
2022-10-23T15:50:50.366Z,19.73
2022-10-23T15:52:53.390Z,19.75
2022-10-23T15:54:55.000Z,19.68
2022-10-23T15:56:56.668Z,19.80
2022-10-23T15:58:58.392Z,19.80
2022-10-23T16:01:06.469Z,19.71
2022-10-23T16:03:08.402Z,19.69
2022-10-23T16:05:10.070Z,19.68
2022-10-23T16:07:11.689Z,19.71
2022-10-23T16:09:14.252Z,19.66
2022-10-23T16:11:28.608Z,19.56
2022-10-23T16:13:30.383Z,19.64
2022-10-23T16:15:35.530Z,19.59
2022-10-23T16:17:37.203Z,19.25
2022-10-23T16:19:39.270Z,19.01
2022-10-23T16:21:42.249Z,18.28
2022-10-23T16:23:43.935Z,17.76
2022-10-23T16:25:55.726Z,17.45
2022-10-23T16:27:58.976Z,17.06
2022-10-23T16:30:00.618Z,16.42
2022-10-23T16:32:02.263Z,16.67
2022-10-23T16:34:05.562Z,16.45
2022-10-23T16:36:09.626Z,16.49
2022-10-23T16:38:11.483Z,16.31
2022-10-23T16:40:13.598Z,16.32
2022-10-23T16:42:15.367Z,16.31
2022-10-23T16:44:17.199Z,16.28
2022-10-23T16:46:21.514Z,16.35
2022-10-23T16:48:23.138Z,16.36
2022-10-23T16:50:24.754Z,16.39
2022-10-23T16:52:27.580Z,16.34
2022-10-23T16:54:29.232Z,16.36
2022-10-23T16:56:31.197Z,16.35
2022-10-23T16:58:33.898Z,16.36
2022-10-23T17:00:35.599Z,16.39
2022-10-23T17:02:38.188Z,16.34
2022-10-23T17:04:40.232Z,16.36
2022-10-23T17:06:57.394Z,16.34
2022-10-23T17:09:20.960Z,16.44
2022-10-23T17:11:48.688Z,16.46
2022-10-23T17:14:20.502Z,16.49
2022-10-23T17:16:41.450Z,16.51
2022-10-23T17:18:51.440Z,16.51
2022-10-23T17:21:18.012Z,16.54
2022-10-23T17:23:33.657Z,16.36
2022-10-23T17:26:28.711Z,16.41
2022-10-23T17:28:51.715Z,16.43
2022-10-23T17:31:37.368Z,16.29
2022-10-23T17:33:40.025Z,16.34
2022-10-23T17:35:41.952Z,16.32
2022-10-23T17:37:55.858Z,16.39
2022-10-23T17:40:15.059Z,16.38
2022-10-23T17:42:37.790Z,16.41
2022-10-23T17:44:46.548Z,16.31
2022-10-23T17:47:05.292Z,16.38
2022-10-23T17:49:26.474Z,16.52
2022-10-23T17:52:00.109Z,16.39
2022-10-23T17:54:17.912Z,16.30
2022-10-23T17:56:35.811Z,16.25
2022-10-23T17:58:58.030Z,16.26
2022-10-23T18:01:21.850Z,16.13
2022-10-23T18:03:37.249Z,16.15
2022-10-23T18:05:57.853Z,16.11
2022-10-23T18:08:01.992Z,16.08
2022-10-23T18:10:05.045Z,16.08
2022-10-23T18:12:15.893Z,16.08
2022-10-23T18:14:38.508Z,16.07
2022-10-23T18:17:07.349Z,16.12
2022-10-23T18:19:17.846Z,16.13
2022-10-23T18:21:30.654Z,16.19
2022-10-23T18:23:55.008Z,16.21
2022-10-23T18:26:17.447Z,16.25
2022-10-23T18:28:29.831Z,16.16
2022-10-23T18:30:44.734Z,16.13
2022-10-23T18:33:11.340Z,16.14
2022-10-23T18:35:33.025Z,16.16
2022-10-23T18:37:45.927Z,16.10
2022-10-23T18:40:02.392Z,16.13
2022-10-23T18:42:26.439Z,16.07
2022-10-23T18:44:37.298Z,16.23
2022-10-23T18:46:57.897Z,16.19
2022-10-23T18:49:09.445Z,16.24
2022-10-23T18:51:41.632Z,16.38
2022-10-23T18:53:54.381Z,16.35
2022-10-23T18:56:20.606Z,16.41
2022-10-23T18:58:38.191Z,16.43
2022-10-23T19:00:59.513Z,16.41
2022-10-23T19:03:24.190Z,16.38
2022-10-23T19:05:25.914Z,16.43
2022-10-23T19:07:39.104Z,16.43
2022-10-23T19:09:56.619Z,16.42
2022-10-23T19:12:21.555Z,16.49
2022-10-23T19:14:23.546Z,16.47
2022-10-23T19:16:54.852Z,16.36
2022-10-23T19:19:29.110Z,16.27
2022-10-23T19:21:53.828Z,16.29
2022-10-23T19:23:57.796Z,16.27
2022-10-23T19:26:09.401Z,16.24
2022-10-23T19:28:11.081Z,16.20
2022-10-23T19:30:19.319Z,16.22
2022-10-23T19:32:23.605Z,16.14
2022-10-23T19:34:25.456Z,16.21
2022-10-23T19:36:27.076Z,16.15
2022-10-23T19:38:28.799Z,16.22
2022-10-23T19:40:30.638Z,16.29
2022-10-23T19:42:38.315Z,16.30
2022-10-23T19:45:01.220Z,16.36
2022-10-23T19:47:22.332Z,16.37
2022-10-23T19:49:50.054Z,16.38
2022-10-23T19:52:02.125Z,16.43
2022-10-23T19:54:04.749Z,16.44
2022-10-23T19:56:28.868Z,16.39
2022-10-23T19:59:00.424Z,16.42
2022-10-23T20:01:33.451Z,16.52
2022-10-23T20:03:55.633Z,16.50
2022-10-23T20:06:23.694Z,16.49
2022-10-23T20:08:39.771Z,16.43
2022-10-23T20:11:02.308Z,16.46
2022-10-23T20:13:27.215Z,16.54
2022-10-23T20:15:49.248Z,16.51
2022-10-23T20:18:04.221Z,16.54
2022-10-23T20:20:25.799Z,16.64
2022-10-23T20:22:30.316Z,16.72
2022-10-23T20:24:32.114Z,16.70
2022-10-23T20:26:48.185Z,16.71
2022-10-23T20:29:11.523Z,16.81
2022-10-23T20:31:15.233Z,16.74
2022-10-23T20:33:17.027Z,16.85
2022-10-23T20:35:18.816Z,16.90
2022-10-23T20:37:20.661Z,16.86
2022-10-23T20:39:26.871Z,16.97
2022-10-23T20:41:29.115Z,16.89
2022-10-23T20:43:35.010Z,16.85
2022-10-23T20:45:36.653Z,16.97
2022-10-23T20:47:38.440Z,16.82
2022-10-23T20:49:40.069Z,16.82
2022-10-23T20:51:42.204Z,16.87
2022-10-23T20:53:44.993Z,16.82
2022-10-23T20:55:46.656Z,16.86
2022-10-23T20:57:48.411Z,16.86
2022-10-23T20:59:50.227Z,16.83
2022-10-23T21:01:53.619Z,16.81
2022-10-23T21:03:58.203Z,16.70
2022-10-23T21:06:12.625Z,16.69
2022-10-23T21:08:14.354Z,16.68
2022-10-23T21:10:16.071Z,16.64
2022-10-23T21:12:17.944Z,16.69
2022-10-23T21:14:19.602Z,16.77
2022-10-23T21:16:27.591Z,16.77
2022-10-23T21:20:43.095Z,16.85
2022-10-23T21:22:45.188Z,16.93
2022-10-23T21:24:47.295Z,16.91
2022-10-23T21:26:49.009Z,16.91
2022-10-23T21:28:56.203Z,16.89
2022-10-23T21:31:12.963Z,16.84
2022-10-23T21:33:15.553Z,16.76
2022-10-23T21:35:17.224Z,16.73
2022-10-23T21:37:18.865Z,16.71
2022-10-23T21:39:20.613Z,16.61
2022-10-23T21:41:25.233Z,16.47
2022-10-23T21:43:27.015Z,16.50
2022-10-23T21:45:28.810Z,16.50
2022-10-23T21:47:30.510Z,16.36
2022-10-23T21:49:32.239Z,16.26
2022-10-23T21:51:37.805Z,16.34
2022-10-23T21:53:39.435Z,16.26
2022-10-23T21:55:41.333Z,16.24
2022-10-23T21:57:43.030Z,16.30
2022-10-23T21:59:44.743Z,16.26
2022-10-23T22:01:48.760Z,16.25
2022-10-23T22:03:50.840Z,16.27
2022-10-23T22:06:03.529Z,16.24
2022-10-23T22:08:05.429Z,16.12
2022-10-23T22:10:07.585Z,16.14
2022-10-23T22:12:10.961Z,16.13
2022-10-23T22:14:12.608Z,16.13
2022-10-23T22:16:22.773Z,16.05
2022-10-23T22:18:24.437Z,16.08
2022-10-23T22:20:26.249Z,16.09
2022-10-23T22:22:27.928Z,15.89
2022-10-23T22:24:29.647Z,16.05
2022-10-23T22:26:40.984Z,16.08
2022-10-23T22:28:42.662Z,16.12
2022-10-23T22:30:44.362Z,16.17
2022-10-23T22:32:46.366Z,16.16
2022-10-23T22:34:52.701Z,16.05
2022-10-23T22:36:55.588Z,16.20
2022-10-23T22:38:57.365Z,16.08
2022-10-23T22:41:02.571Z,16.11
2022-10-23T22:43:04.684Z,16.06
2022-10-23T22:45:06.983Z,16.02
2022-10-23T22:47:08.640Z,15.95
2022-10-23T22:49:12.504Z,15.88
2022-10-23T22:51:16.308Z,15.87
2022-10-23T22:53:17.932Z,15.84
2022-10-23T22:55:19.740Z,15.93
2022-10-23T22:57:22.689Z,15.77
2022-10-23T22:59:24.354Z,15.76
2022-10-23T23:01:28.191Z,15.79
2022-10-23T23:03:30.019Z,15.70
2022-10-23T23:05:31.877Z,15.45
2022-10-23T23:07:33.569Z,15.65
2022-10-23T23:09:40.676Z,15.74
2022-10-23T23:11:51.224Z,15.73
2022-10-23T23:13:54.111Z,15.72
2022-10-23T23:15:56.626Z,15.79
2022-10-23T23:17:58.720Z,15.73
2022-10-23T23:20:00.482Z,15.70
2022-10-23T23:22:02.634Z,15.56
2022-10-23T23:24:04.489Z,15.62
2022-10-23T23:26:09.371Z,15.73
2022-10-23T23:28:15.987Z,15.75
2022-10-23T23:30:17.690Z,15.71
2022-10-23T23:32:19.434Z,15.72
2022-10-23T23:34:21.259Z,15.67
2022-10-23T23:36:26.548Z,15.76
2022-10-23T23:38:28.242Z,15.64
2022-10-23T23:40:29.964Z,15.65
2022-10-23T23:42:31.924Z,15.57
2022-10-23T23:44:38.888Z,15.71
2022-10-23T23:46:47.547Z,15.72
2022-10-23T23:48:50.070Z,15.75
2022-10-23T23:50:51.780Z,15.71
2022-10-23T23:52:53.490Z,15.83
2022-10-23T23:54:55.245Z,15.77
2022-10-23T23:56:59.887Z,15.77
2022-10-23T23:59:01.583Z,15.79
